createdAt,value
2019-01-15T00:15:09.443Z,17.77
2019-01-15T00:34:08.711Z,16.15
2019-01-15T00:38:13.267Z,13.00
2019-01-15T00:42:17.791Z,13.13
2019-01-15T00:46:22.339Z,12.35
2019-01-15T00:50:26.877Z,14.15
2019-01-15T00:54:31.425Z,12.37
2019-01-15T00:58:35.991Z,16.82
2019-01-15T01:46:24.120Z,13.38
2019-01-15T01:50:28.692Z,10.35
2019-01-15T01:55:31.800Z,13.55
2019-01-15T01:59:36.326Z,13.77
2019-01-15T02:03:40.862Z,16.45
2019-01-15T02:10:59.773Z,11.75
2019-01-15T02:15:04.711Z,12.00
2019-01-15T02:19:09.315Z,14.05
2019-01-15T02:25:34.399Z,16.10
2019-01-15T02:29:38.908Z,13.03
2019-01-15T02:33:43.477Z,10.40
2019-01-15T02:40:40.679Z,13.72
2019-01-15T03:17:42.910Z,11.18
2019-01-15T03:21:47.491Z,12.45
2019-01-15T03:25:52.007Z,8.95
2019-01-15T03:43:08.424Z,9.53
2019-01-15T03:47:12.943Z,12.73
2019-01-15T03:51:17.456Z,10.60
2019-01-15T03:55:21.979Z,11.93
2019-01-15T03:59:26.539Z,15.35
2019-01-15T04:03:31.110Z,11.30
2019-01-15T04:07:35.631Z,9.25
2019-01-15T04:11:40.120Z,7.73
2019-01-15T04:15:44.687Z,7.95
2019-01-15T04:19:49.228Z,14.25
2019-01-15T04:23:53.775Z,9.47
2019-01-15T04:31:21.884Z,8.65
2019-01-15T04:35:26.471Z,10.65
2019-01-15T04:39:31.009Z,7.65
2019-01-15T04:43:35.541Z,11.10
2019-01-15T04:47:40.091Z,10.48
2019-01-15T04:51:44.581Z,10.30
2019-01-15T04:55:49.149Z,9.83
2019-01-15T04:59:53.687Z,8.73
2019-01-15T06:01:52.128Z,11.63
2019-01-15T06:09:17.475Z,9.48
2019-01-15T06:13:22.118Z,9.43
2019-01-15T06:17:26.634Z,7.97
2019-01-15T06:21:31.275Z,12.15
2019-01-15T06:25:35.810Z,8.03
2019-01-15T06:29:40.331Z,10.53
2019-01-15T06:33:44.959Z,8.08
2019-01-15T06:37:49.507Z,9.33
2019-01-15T06:41:54.119Z,8.75
2019-01-15T06:45:58.639Z,10.83
2019-01-15T06:50:03.168Z,8.00
2019-01-15T06:54:07.667Z,18.85
2019-01-15T06:58:12.192Z,10.30
2019-01-15T07:02:16.695Z,9.78
2019-01-15T07:06:21.288Z,9.78
2019-01-15T07:10:31.573Z,10.38
2019-01-15T07:14:36.076Z,11.28
2019-01-15T07:18:40.635Z,11.93
2019-01-15T07:22:45.178Z,14.80
2019-01-15T07:26:49.695Z,9.93
2019-01-15T07:30:54.889Z,13.35
2019-01-15T07:34:59.437Z,10.67
2019-01-15T07:39:05.573Z,14.33
2019-01-15T07:43:10.111Z,16.37
2019-01-15T07:47:14.683Z,18.40
2019-01-15T07:51:19.238Z,15.30
2019-01-15T07:55:23.792Z,15.53
2019-01-15T07:59:28.343Z,18.87
2019-01-15T08:03:32.891Z,14.80
2019-01-15T08:07:37.424Z,16.37
2019-01-15T08:11:41.974Z,18.95
2019-01-15T08:15:46.495Z,16.70
2019-01-15T08:19:51.027Z,18.47
2019-01-15T08:23:55.559Z,16.77
2019-01-15T08:28:00.112Z,20.57
2019-01-15T08:32:05.130Z,18.53
2019-01-15T08:36:09.715Z,20.95
2019-01-15T08:40:14.662Z,21.00
2019-01-15T08:44:19.477Z,21.43
2019-01-15T08:48:25.938Z,25.50
2019-01-15T08:52:30.483Z,25.90
2019-01-15T08:56:35.070Z,25.43
2019-01-15T09:00:39.668Z,21.27
2019-01-15T09:04:44.421Z,25.05
2019-01-15T09:08:49.047Z,20.15
2019-01-15T09:12:53.586Z,23.80
2019-01-15T09:20:27.391Z,22.58
2019-01-15T09:27:26.627Z,21.90
2019-01-15T09:31:45.332Z,22.48
2019-01-15T09:35:49.891Z,19.67
2019-01-15T09:42:57.110Z,25.68
2019-01-15T09:47:01.647Z,20.23
2019-01-15T09:51:06.305Z,20.63
2019-01-15T09:55:11.338Z,28.00
2019-01-15T10:00:34.744Z,25.90
2019-01-15T10:04:39.339Z,25.80
2019-01-15T10:08:43.879Z,27.58
2019-01-15T10:12:48.442Z,29.45
2019-01-15T10:16:52.930Z,26.82
2019-01-15T10:20:57.473Z,28.20
2019-01-15T10:25:02.192Z,23.80
2019-01-15T10:29:06.727Z,29.45
2019-01-15T10:33:16.520Z,28.27
2019-01-15T10:37:21.178Z,28.47
2019-01-15T10:41:25.792Z,29.72
2019-01-15T10:45:30.387Z,25.50
2019-01-15T10:49:35.008Z,25.90
2019-01-15T10:53:39.544Z,27.40
2019-01-15T10:57:44.140Z,27.10
2019-01-15T11:01:51.896Z,22.45
2019-01-15T11:05:56.509Z,24.90
2019-01-15T11:10:01.103Z,31.37
2019-01-15T11:14:05.883Z,31.55
2019-01-15T11:18:10.488Z,27.25
2019-01-15T11:22:15.156Z,26.33
2019-01-15T11:26:19.784Z,25.43
2019-01-15T11:30:24.422Z,25.12
2019-01-15T11:34:29.178Z,26.97
2019-01-15T11:38:33.764Z,23.73
2019-01-15T11:42:38.525Z,25.95
2019-01-15T11:46:46.259Z,28.67
2019-01-15T11:50:50.843Z,26.00
2019-01-15T11:54:55.413Z,23.77
2019-01-15T11:59:00.323Z,26.48
2019-01-15T12:03:22.703Z,26.97
2019-01-15T12:08:06.183Z,22.77
2019-01-15T12:12:30.089Z,22.62
2019-01-15T12:16:52.185Z,20.62
2019-01-15T12:21:04.374Z,24.25
2019-01-15T12:25:43.224Z,20.80
2019-01-15T12:30:05.375Z,25.83
2019-01-15T12:34:41.586Z,20.68
2019-01-15T12:39:05.075Z,24.20
2019-01-15T12:43:22.713Z,19.17
2019-01-15T12:47:55.427Z,18.40
2019-01-15T12:52:11.364Z,20.85
2019-01-15T12:56:33.565Z,17.75
2019-01-15T13:01:12.273Z,18.10
2019-01-15T13:05:54.182Z,18.97
2019-01-15T13:10:26.212Z,20.43
2019-01-15T13:15:01.786Z,16.93
2019-01-15T13:19:24.335Z,19.27
2019-01-15T13:24:06.150Z,21.95
2019-01-15T13:28:32.053Z,15.85
2019-01-15T13:33:12.902Z,16.35
2019-01-15T13:37:34.456Z,14.38
2019-01-15T13:41:57.951Z,14.63
2019-01-15T13:46:23.563Z,15.90
2019-01-15T13:50:52.927Z,13.62
2019-01-15T13:55:16.423Z,15.28
2019-01-15T13:59:38.735Z,12.45
2019-01-15T14:04:00.979Z,10.63
2019-01-15T14:08:23.418Z,10.63
2019-01-15T14:12:46.924Z,13.43
2019-01-15T14:17:16.167Z,12.47
2019-01-15T14:21:38.419Z,12.37
2019-01-15T14:26:03.595Z,13.10
2019-01-15T14:30:45.784Z,12.55
2019-01-15T14:35:27.728Z,13.15
2019-01-15T14:40:09.171Z,11.60
2019-01-15T14:44:25.763Z,13.00
2019-01-15T14:48:47.908Z,10.85
2019-01-15T14:53:14.381Z,12.20
2019-01-15T14:57:49.900Z,15.75
2019-01-15T15:02:12.264Z,13.40
2019-01-15T15:06:38.550Z,12.68
2019-01-15T15:11:17.317Z,13.07
2019-01-15T15:15:43.790Z,10.63
2019-01-15T15:20:07.618Z,12.45
2019-01-15T15:24:32.087Z,13.10
2019-01-15T15:29:01.478Z,15.57
2019-01-15T15:33:18.829Z,14.47
2019-01-15T15:37:48.342Z,12.10
2019-01-15T15:42:10.721Z,13.65
2019-01-15T15:46:32.447Z,12.25
2019-01-15T15:51:11.091Z,11.67
2019-01-15T15:55:34.631Z,14.23
2019-01-15T15:59:58.086Z,15.38
2019-01-15T16:04:33.680Z,16.13
2019-01-15T16:09:03.223Z,14.98
2019-01-15T16:13:23.556Z,12.45
2019-01-15T16:17:39.255Z,17.67
2019-01-15T16:22:17.691Z,13.05
2019-01-15T16:26:47.448Z,15.80
2019-01-15T16:31:12.180Z,13.03
2019-01-15T16:35:36.979Z,10.87
2019-01-15T16:40:18.619Z,14.07
2019-01-15T16:44:42.064Z,13.05
2019-01-15T16:49:17.550Z,14.93
2019-01-15T16:53:40.035Z,15.73
2019-01-15T16:57:58.333Z,15.45
2019-01-15T17:02:33.996Z,15.47
2019-01-15T17:07:06.780Z,16.57
2019-01-15T17:11:25.006Z,14.57
2019-01-15T17:16:07.004Z,15.43
2019-01-15T17:20:36.426Z,13.75
2019-01-15T17:24:58.964Z,12.40
2019-01-15T17:29:22.490Z,13.03
2019-01-15T17:33:38.790Z,13.53
2019-01-15T17:38:01.757Z,15.28
2019-01-15T17:42:22.983Z,16.07
2019-01-15T17:46:46.438Z,13.32
2019-01-15T17:51:09.423Z,15.72
2019-01-15T18:00:01.179Z,14.00
2019-01-15T18:04:24.707Z,17.23
2019-01-15T18:08:37.185Z,17.32
2019-01-15T18:13:03.663Z,16.33
2019-01-15T18:17:36.115Z,14.63
2019-01-15T18:21:55.972Z,15.75
2019-01-15T18:26:16.744Z,14.95
2019-01-15T18:30:42.984Z,13.88
2019-01-15T18:35:03.559Z,17.32
2019-01-15T18:39:28.479Z,14.70
2019-01-15T18:43:50.184Z,12.90
2019-01-15T18:48:07.652Z,15.83
2019-01-15T18:52:31.128Z,16.90
2019-01-15T18:56:58.899Z,15.15
2019-01-15T19:01:20.247Z,17.00
2019-01-15T19:05:49.826Z,19.97
2019-01-15T19:10:19.848Z,17.80
2019-01-15T19:14:42.184Z,17.42
2019-01-15T19:19:20.981Z,15.72
2019-01-15T19:23:43.165Z,16.10
2019-01-15T19:27:58.423Z,16.25
2019-01-15T19:32:24.603Z,15.93
2019-01-15T19:36:48.107Z,16.10
2019-01-15T19:41:26.650Z,15.10
2019-01-15T19:45:43.888Z,16.70
2019-01-15T19:50:10.380Z,19.83
2019-01-15T19:54:32.463Z,16.00
2019-01-15T19:58:54.487Z,15.10
2019-01-15T20:03:17.783Z,14.73
2019-01-15T20:07:40.682Z,14.40
2019-01-15T20:12:02.771Z,14.10
2019-01-15T20:16:24.923Z,13.65
2019-01-15T20:20:54.488Z,14.10
2019-01-15T20:25:23.975Z,13.93
2019-01-15T20:30:02.847Z,13.78
2019-01-15T20:34:26.350Z,12.58
2019-01-15T20:38:48.807Z,13.73
2019-01-15T20:47:39.230Z,13.03
2019-01-15T20:52:01.656Z,12.80
2019-01-15T20:56:24.052Z,13.13
2019-01-15T21:00:53.467Z,12.47
2019-01-15T21:05:15.863Z,12.58
2019-01-15T21:09:57.519Z,13.53
2019-01-15T21:14:21.001Z,13.47
2019-01-15T21:18:44.464Z,12.35
2019-01-15T21:23:10.935Z,12.37
2019-01-15T21:27:39.156Z,14.15
2019-01-15T21:32:08.797Z,16.27
2019-01-15T21:36:31.479Z,15.47
2019-01-15T21:41:03.110Z,15.23
2019-01-15T21:45:42.063Z,15.15
2019-01-15T21:50:08.402Z,15.98
2019-01-15T21:54:29.095Z,17.87
2019-01-15T21:58:46.097Z,18.33
2019-01-15T22:03:06.946Z,20.53
2019-01-15T22:07:30.360Z,22.33
2019-01-15T22:11:45.991Z,20.75
2019-01-15T22:16:15.316Z,21.25
2019-01-15T22:20:56.923Z,21.65
2019-01-15T22:25:35.518Z,22.27
2019-01-15T22:29:57.788Z,22.20
2019-01-15T22:34:27.198Z,22.77
2019-01-15T22:38:56.487Z,23.92
2019-01-15T22:43:25.114Z,21.12
2019-01-15T22:47:54.924Z,20.48
2019-01-15T22:52:25.873Z,21.60
2019-01-15T22:56:47.891Z,20.57
2019-01-15T23:01:15.964Z,21.97
2019-01-15T23:05:38.067Z,20.60
2019-01-15T23:10:16.603Z,22.70
2019-01-15T23:14:41.292Z,22.17
2019-01-15T23:18:58.851Z,23.53
2019-01-15T23:23:21.175Z,23.67
2019-01-15T23:27:39.434Z,21.68
2019-01-15T23:31:57.392Z,21.20
2019-01-15T23:36:19.626Z,22.17
2019-01-15T23:40:34.476Z,21.95
2019-01-15T23:44:53.595Z,23.75
2019-01-15T23:49:35.179Z,19.70
2019-01-15T23:54:16.896Z,20.90
2019-01-15T23:58:55.527Z,19.60
